Search for airport 
image banner adimage banner adimage banner ad
image banner ad

1CL1 - Little Buttes Antique Airfield

Located in Lancaster, United States

ICAO - 1CL1, IATA -

Data provided by Airmate  

General information

Coordinates: N34°47'39" W118°16'39"
Elevation is 2433 feet MSL.
Magnetic variation is 14° East
View others Airports in California

Operational data

Special qualification required
Current time UTC:
Current local time:
Weather at : KWJF - General Wm J Fox Airfield ( 8 km )
METAR: KWJF 292156Z 23013G20KT 10SM FEW120 39/06 A2991 RMK AO2 SLP099 T03890061
TAF: KWJF 291736Z 2918/3018 00000KT P6SM SKC FM291900 23010KT P6SM SKC FM292300 23015G23KT P6SM SKC FM300300 23012KT P6SM SKC FM300800 21007KT P6SM SKC
View NOTAMs / SUP AIP / TFR affecting this airport [VIEW]
Communications frequencies: [VIEW]

Runways:

RWY identifierQFULength (ft)Width (ft)SurfaceLDA (ft)
06290080GRASS
24290080GRASS

Airport contact information

Address: Lancaster United States

Satellite view of 1CL1